createdAt,value
2023-04-13T00:00:42.261Z,100.00
2023-04-13T00:03:12.649Z,100.00
2023-04-13T00:05:40.439Z,100.00
2023-04-13T00:08:08.276Z,100.00
2023-04-13T00:10:36.620Z,100.00
2023-04-13T00:13:05.396Z,100.00
2023-04-13T00:15:36.969Z,100.00
2023-04-13T00:18:04.631Z,100.00
2023-04-13T00:20:31.722Z,100.00
2023-04-13T00:22:58.772Z,100.00
2023-04-13T00:25:25.928Z,100.00
2023-04-13T00:27:55.708Z,100.00
2023-04-13T00:30:22.933Z,100.00
2023-04-13T00:32:50.326Z,100.00
2023-04-13T00:35:24.985Z,100.00
2023-04-13T00:37:53.088Z,100.00
2023-04-13T00:40:20.528Z,100.00
2023-04-13T00:42:49.584Z,100.00
2023-04-13T00:45:21.139Z,100.00
2023-04-13T00:47:50.857Z,100.00
2023-04-13T00:50:21.260Z,100.00
2023-04-13T00:52:49.310Z,100.00
2023-04-13T00:55:21.255Z,100.00
2023-04-13T00:57:50.486Z,100.00
2023-04-13T01:00:18.826Z,100.00
2023-04-13T01:02:46.040Z,100.00
2023-04-13T01:05:15.759Z,100.00
2023-04-13T01:07:56.242Z,100.00
2023-04-13T01:10:52.544Z,100.00
2023-04-13T01:13:26.529Z,100.00
2023-04-13T01:16:16.859Z,100.00
2023-04-13T01:21:35.009Z,100.00
2023-04-13T01:24:17.885Z,100.00
2023-04-13T01:27:15.367Z,100.00
2023-04-13T01:29:45.560Z,100.00
2023-04-13T01:32:17.546Z,100.00
2023-04-13T01:34:45.826Z,100.00
2023-04-13T01:37:13.217Z,100.00
2023-04-13T01:39:41.285Z,100.00
2023-04-13T01:42:52.603Z,100.00
2023-04-13T01:45:27.632Z,100.00
2023-04-13T01:48:31.740Z,100.00
2023-04-13T01:51:20.360Z,100.00
2023-04-13T01:53:57.343Z,100.00
2023-04-13T01:56:26.657Z,100.00
2023-04-13T01:59:00.196Z,100.00
2023-04-13T02:01:29.209Z,100.00
2023-04-13T02:03:58.893Z,100.00
2023-04-13T02:06:30.994Z,99.43
2023-04-13T02:08:59.472Z,99.01
2023-04-13T02:11:28.624Z,99.16
2023-04-13T02:13:58.275Z,98.87
2023-04-13T02:16:25.774Z,98.50
2023-04-13T02:18:52.952Z,99.06
2023-04-13T02:21:22.237Z,99.04
2023-04-13T02:23:52.613Z,98.93
2023-04-13T02:26:22.058Z,99.19
2023-04-13T02:28:51.367Z,98.73
2023-04-13T02:31:20.025Z,99.44
2023-04-13T02:33:47.725Z,99.49
2023-04-13T02:36:17.632Z,99.77
2023-04-13T02:38:54.812Z,98.93
2023-04-13T02:41:29.768Z,98.92
2023-04-13T02:43:57.928Z,98.22
2023-04-13T02:46:28.916Z,98.66
2023-04-13T02:49:06.564Z,99.02
2023-04-13T02:51:40.296Z,98.50
2023-04-13T02:54:11.380Z,98.36
2023-04-13T02:56:41.363Z,98.71
2023-04-13T02:59:09.219Z,98.72
2023-04-13T03:01:36.660Z,98.15
2023-04-13T03:04:04.410Z,98.48
2023-04-13T03:06:31.797Z,99.13
2023-04-13T03:09:01.814Z,99.22
2023-04-13T03:11:36.715Z,99.14
2023-04-13T03:14:21.213Z,99.31
2023-04-13T03:16:54.707Z,99.33
2023-04-13T03:19:26.607Z,99.37
2023-04-13T03:21:54.207Z,100.00
2023-04-13T03:24:28.611Z,98.83
2023-04-13T03:26:59.562Z,98.73
2023-04-13T03:29:33.917Z,98.94
2023-04-13T03:32:01.436Z,98.65
2023-04-13T03:34:31.924Z,98.79
2023-04-13T03:37:02.933Z,98.01
2023-04-13T03:39:30.264Z,97.54
2023-04-13T03:41:58.146Z,97.12
2023-04-13T03:44:26.357Z,97.28
2023-04-13T03:46:53.706Z,96.33
2023-04-13T03:49:30.618Z,96.54
2023-04-13T03:51:59.197Z,95.87
2023-04-13T03:54:28.796Z,96.14
2023-04-13T03:57:00.747Z,94.99
2023-04-13T03:59:30.745Z,94.31
2023-04-13T04:02:18.168Z,95.31
2023-04-13T04:04:46.703Z,95.72
2023-04-13T04:07:16.536Z,96.40
2023-04-13T04:09:44.122Z,96.73
2023-04-13T04:12:13.757Z,96.72
2023-04-13T04:14:43.223Z,96.25
2023-04-13T04:17:19.130Z,96.05
2023-04-13T04:19:46.886Z,95.29
2023-04-13T04:22:15.800Z,94.07
2023-04-13T04:24:43.270Z,93.55
2023-04-13T04:27:42.678Z,93.27
2023-04-13T04:30:11.049Z,93.92
2023-04-13T04:32:40.787Z,92.68
2023-04-13T04:35:14.406Z,91.42
2023-04-13T04:37:51.287Z,91.93
2023-04-13T04:41:28.606Z,91.36
2023-04-13T04:44:03.592Z,90.41
2023-04-13T04:46:38.801Z,88.99
2023-04-13T04:49:11.323Z,88.00
2023-04-13T04:51:39.577Z,88.01
2023-04-13T04:54:07.579Z,87.27
2023-04-13T04:56:34.887Z,84.22
2023-04-13T04:59:02.065Z,83.76
2023-04-13T05:01:43.413Z,79.58
2023-04-13T05:04:13.148Z,80.01
2023-04-13T05:07:17.850Z,80.30
2023-04-13T05:09:45.768Z,80.26
2023-04-13T05:12:13.100Z,77.49
2023-04-13T05:14:43.314Z,77.46
2023-04-13T05:17:12.887Z,76.04
2023-04-13T05:19:41.174Z,75.52
2023-04-13T05:22:16.228Z,75.66
2023-04-13T05:24:50.169Z,75.37
2023-04-13T05:27:18.194Z,75.95
2023-04-13T05:29:47.549Z,76.25
2023-04-13T05:32:18.522Z,78.00
2023-04-13T05:34:47.693Z,77.06
2023-04-13T05:37:20.794Z,78.70
2023-04-13T05:39:47.976Z,77.84
2023-04-13T05:42:17.976Z,76.49
2023-04-13T05:44:45.869Z,75.11
2023-04-13T05:47:14.586Z,74.46
2023-04-13T05:49:44.580Z,73.81
2023-04-13T05:52:14.934Z,71.98
2023-04-13T05:54:45.158Z,72.08
2023-04-13T05:57:12.240Z,72.30
2023-04-13T05:59:45.073Z,71.78
2023-04-13T06:02:14.930Z,69.05
2023-04-13T06:04:43.546Z,66.17
2023-04-13T06:10:44.592Z,69.59
2023-04-13T06:13:12.559Z,70.96
2023-04-13T06:15:40.611Z,69.32
2023-04-13T06:18:07.823Z,70.06
2023-04-13T06:20:35.179Z,70.92
2023-04-13T06:23:02.402Z,73.91
2023-04-13T06:25:31.068Z,69.78
2023-04-13T06:28:01.196Z,69.57
2023-04-13T06:30:28.899Z,70.29
2023-04-13T06:34:08.439Z,69.65
2023-04-13T06:36:40.642Z,67.38
2023-04-13T06:39:10.522Z,67.89
2023-04-13T06:41:39.688Z,64.17
2023-04-13T06:47:05.936Z,63.66
2023-04-13T06:49:34.207Z,64.04
2023-04-13T06:52:02.598Z,65.07
2023-04-13T06:54:30.569Z,65.56
2023-04-13T06:57:03.989Z,64.70
2023-04-13T06:59:31.278Z,64.21
2023-04-13T07:01:58.525Z,64.85
2023-04-13T07:04:29.119Z,62.33
2023-04-13T07:06:58.185Z,64.23
2023-04-13T07:09:25.980Z,66.78
2023-04-13T07:11:53.556Z,61.93
2023-04-13T07:14:21.325Z,64.11
2023-04-13T07:16:48.995Z,61.91
2023-04-13T07:19:17.094Z,64.19
2023-04-13T07:21:44.286Z,64.16
2023-04-13T07:24:11.400Z,62.31
2023-04-13T07:26:42.316Z,60.70
2023-04-13T07:29:13.560Z,60.99
2023-04-13T07:31:45.006Z,63.21
2023-04-13T07:34:43.674Z,62.37
2023-04-13T07:37:11.324Z,61.83
2023-04-13T07:39:38.751Z,60.47
2023-04-13T07:42:06.157Z,61.18
2023-04-13T07:44:41.300Z,60.17
2023-04-13T07:47:09.039Z,58.60
2023-04-13T07:49:39.282Z,56.60
2023-04-13T07:52:13.075Z,58.99
2023-04-13T07:54:41.444Z,57.66
2023-04-13T07:57:10.651Z,55.91
2023-04-13T07:59:43.650Z,59.99
2023-04-13T08:02:11.413Z,59.85
2023-04-13T08:04:41.679Z,60.48
2023-04-13T08:07:09.420Z,58.68
2023-04-13T08:09:39.356Z,57.06
2023-04-13T08:12:08.381Z,56.23
2023-04-13T08:14:40.222Z,59.51
2023-04-13T08:17:08.123Z,57.12
2023-04-13T08:19:35.574Z,54.91
2023-04-13T08:22:05.109Z,57.11
2023-04-13T08:24:32.248Z,56.18
2023-04-13T08:26:59.432Z,56.80
2023-04-13T08:29:27.857Z,52.90
2023-04-13T08:31:57.098Z,51.96
2023-04-13T08:34:25.110Z,49.67
2023-04-13T08:36:55.189Z,50.61
2023-04-13T08:39:25.311Z,51.83
2023-04-13T08:41:52.465Z,51.94
2023-04-13T08:44:21.491Z,52.50
2023-04-13T08:46:52.592Z,46.70
2023-04-13T08:49:27.462Z,47.89
2023-04-13T08:52:16.736Z,48.94
2023-04-13T08:54:47.833Z,50.70
2023-04-13T08:57:21.435Z,49.37
2023-04-13T08:59:52.516Z,51.53
2023-04-13T09:02:28.634Z,46.62
2023-04-13T09:05:06.320Z,47.70
2023-04-13T09:07:36.941Z,46.56
2023-04-13T09:10:10.754Z,43.27
2023-04-13T09:12:41.250Z,43.56
2023-04-13T09:15:11.503Z,48.13
2023-04-13T09:17:46.677Z,44.83
2023-04-13T09:20:22.979Z,48.96
2023-04-13T09:22:51.654Z,46.38
2023-04-13T09:25:26.318Z,46.79
2023-04-13T09:27:54.755Z,48.08
2023-04-13T09:30:26.314Z,49.38
2023-04-13T09:33:07.154Z,49.03
2023-04-13T09:35:35.590Z,47.21
2023-04-13T09:38:03.270Z,48.33
2023-04-13T09:40:31.040Z,43.72
2023-04-13T09:43:00.955Z,46.42
2023-04-13T10:18:12.031Z,38.60
2023-04-13T10:20:40.515Z,40.13
2023-04-13T10:23:08.196Z,37.59
2023-04-13T10:25:38.334Z,37.50
2023-04-13T10:28:07.220Z,38.40
2023-04-13T10:30:34.314Z,36.77
2023-04-13T10:33:10.933Z,34.80
2023-04-13T10:35:39.473Z,38.42
2023-04-13T10:38:09.377Z,35.88
2023-04-13T10:40:45.092Z,37.60
2023-04-13T10:43:12.722Z,33.09
2023-04-13T10:45:39.943Z,34.79
2023-04-13T10:48:07.753Z,35.67
2023-04-13T10:50:34.999Z,37.22
2023-04-13T10:53:09.912Z,36.30
2023-04-13T10:55:37.053Z,37.70
2023-04-13T10:58:15.307Z,33.35
2023-04-13T11:00:46.749Z,34.40
2023-04-13T11:03:16.783Z,34.82
2023-04-13T11:05:46.199Z,33.71
2023-04-13T11:08:21.159Z,29.87
2023-04-13T11:10:56.050Z,32.36
2023-04-13T11:13:26.905Z,41.91
2023-04-13T11:16:14.554Z,37.73
2023-04-13T11:18:41.709Z,39.33
2023-04-13T11:21:18.378Z,38.80
2023-04-13T11:23:54.480Z,38.20
2023-04-13T11:26:34.384Z,38.01
2023-04-13T11:29:03.756Z,39.17
2023-04-13T11:31:42.053Z,39.20
2023-04-13T11:34:14.026Z,38.35
2023-04-13T11:36:43.280Z,38.41
2023-04-13T11:39:10.986Z,40.77
2023-04-13T11:41:44.634Z,37.95
2023-04-13T11:44:12.572Z,36.79
2023-04-13T11:46:39.791Z,35.53
2023-04-13T11:49:07.434Z,37.60
2023-04-13T11:51:35.250Z,37.89
2023-04-13T11:54:02.944Z,38.27
2023-04-13T11:56:31.226Z,36.54
2023-04-13T11:58:58.863Z,36.34
2023-04-13T12:01:31.055Z,37.66
2023-04-13T12:04:15.080Z,37.65
2023-04-13T12:06:46.402Z,38.04
2023-04-13T12:09:17.757Z,36.34
2023-04-13T12:11:54.343Z,37.31
2023-04-13T12:19:28.587Z,36.34
2023-04-13T12:21:58.008Z,39.04
2023-04-13T12:24:39.302Z,37.38
2023-04-13T12:29:38.857Z,36.91
2023-04-13T12:32:14.384Z,36.75
2023-04-13T12:34:43.563Z,35.28
2023-04-13T12:37:11.967Z,35.25
2023-04-13T12:39:39.358Z,35.26
2023-04-13T12:42:06.610Z,34.06
2023-04-13T12:44:34.536Z,34.76
2023-04-13T12:47:02.574Z,36.50
2023-04-13T12:49:30.305Z,34.63
2023-04-13T12:51:57.713Z,34.21
2023-04-13T12:54:25.005Z,33.98
2023-04-13T12:56:52.283Z,35.17
2023-04-13T12:59:22.164Z,35.15
2023-04-13T13:01:49.931Z,34.98
2023-04-13T13:04:17.701Z,35.62
2023-04-13T13:06:44.955Z,38.53
2023-04-13T13:09:12.083Z,36.94
2023-04-13T13:11:39.287Z,38.17
2023-04-13T13:15:16.725Z,37.84
2023-04-13T13:17:44.280Z,36.98
2023-04-13T13:20:13.491Z,38.02
2023-04-13T13:22:40.688Z,37.92
2023-04-13T13:25:08.866Z,40.02
2023-04-13T13:28:10.455Z,39.31
2023-04-13T13:30:27.217Z,40.36
2023-04-13T13:32:54.498Z,39.07
2023-04-13T13:35:22.052Z,39.96
2023-04-13T13:37:49.114Z,38.66
2023-04-13T13:40:49.104Z,37.51
2023-04-13T13:43:21.510Z,39.11
2023-04-13T13:45:49.026Z,37.62
2023-04-13T13:48:16.714Z,37.16
2023-04-13T13:50:56.103Z,38.84
2023-04-13T13:53:25.292Z,38.16
2023-04-13T13:55:53.143Z,38.28
2023-04-13T13:58:20.235Z,37.89
2023-04-13T14:00:47.441Z,38.97
2023-04-13T14:03:16.621Z,39.41
2023-04-13T14:05:43.898Z,41.19
2023-04-13T14:08:11.402Z,39.10
2023-04-13T14:10:38.535Z,39.21
2023-04-13T14:13:06.344Z,38.43
2023-04-13T14:15:33.735Z,39.26
2023-04-13T14:20:32.504Z,39.18
2023-04-13T14:22:59.657Z,39.51
2023-04-13T14:25:26.877Z,38.30
2023-04-13T14:27:54.017Z,38.88
2023-04-13T14:30:23.162Z,38.91
2023-04-13T14:32:52.141Z,37.43
2023-04-13T14:35:20.210Z,38.10
2023-04-13T14:37:47.695Z,38.02
2023-04-13T14:40:17.224Z,38.17
2023-04-13T14:42:45.776Z,39.69
2023-04-13T14:45:13.503Z,39.36
2023-04-13T14:47:41.188Z,38.02
2023-04-13T14:50:09.960Z,38.29
2023-04-13T14:52:37.199Z,39.33
2023-04-13T14:55:04.939Z,41.13
2023-04-13T14:57:32.552Z,39.10
2023-04-13T14:59:59.577Z,39.25
2023-04-13T15:02:29.010Z,40.22
2023-04-13T15:04:56.421Z,42.72
2023-04-13T15:07:30.031Z,42.94
2023-04-13T15:09:59.011Z,43.35
2023-04-13T15:12:26.213Z,43.94
2023-04-13T15:14:53.449Z,44.67
2023-04-13T15:17:21.244Z,45.68
2023-04-13T15:19:48.801Z,45.59
2023-04-13T15:22:16.112Z,45.54
2023-04-13T15:24:43.195Z,46.27
2023-04-13T15:27:10.544Z,46.33
2023-04-13T15:29:37.739Z,47.43
2023-04-13T15:32:05.394Z,47.88
2023-04-13T15:34:32.509Z,48.18
2023-04-13T15:36:59.701Z,47.98
2023-04-13T15:39:27.784Z,48.39
2023-04-13T15:41:55.331Z,49.03
2023-04-13T15:44:22.433Z,48.95
2023-04-13T15:46:49.612Z,48.61
2023-04-13T15:49:16.679Z,48.75
2023-04-13T15:52:15.920Z,49.14
2023-04-13T15:54:43.009Z,49.53
2023-04-13T15:57:10.351Z,48.88
2023-04-13T15:59:37.552Z,49.91
2023-04-13T16:02:04.784Z,51.06
2023-04-13T16:04:32.649Z,50.04
2023-04-13T16:09:30.858Z,49.74
2023-04-13T16:11:57.963Z,50.44
2023-04-13T16:14:25.493Z,50.03
2023-04-13T16:17:00.006Z,50.22
2023-04-13T16:19:29.053Z,49.78
2023-04-13T16:21:56.148Z,49.53
2023-04-13T16:24:23.249Z,50.27
2023-04-13T16:26:50.365Z,49.41
2023-04-13T16:29:18.021Z,50.07
2023-04-13T16:31:48.370Z,50.74
2023-04-13T16:34:25.442Z,50.66
2023-04-13T16:36:53.522Z,50.60
2023-04-13T16:39:21.970Z,50.70
2023-04-13T16:41:49.183Z,51.55
2023-04-13T16:44:16.534Z,51.47
2023-04-13T16:46:43.733Z,51.25
2023-04-13T16:49:11.116Z,51.71
2023-04-13T16:51:38.244Z,52.29
2023-04-13T16:54:11.720Z,52.32
2023-04-13T16:56:38.896Z,52.49
2023-04-13T16:59:06.883Z,52.06
2023-04-13T17:01:37.159Z,52.83
2023-04-13T17:04:05.952Z,51.75
2023-04-13T17:06:37.503Z,51.95
2023-04-13T17:09:05.742Z,52.64
2023-04-13T17:11:33.037Z,52.84
2023-04-13T17:14:00.588Z,52.66
2023-04-13T17:16:29.608Z,52.19
2023-04-13T17:18:57.151Z,52.51
2023-04-13T17:21:24.770Z,52.94
2023-04-13T17:23:51.931Z,53.00
2023-04-13T17:26:19.174Z,53.00
2023-04-13T17:28:46.752Z,52.80
2023-04-13T17:31:14.710Z,53.22
2023-04-13T17:33:41.920Z,52.65
2023-04-13T17:36:09.119Z,53.05
2023-04-13T17:38:36.486Z,53.54
2023-04-13T17:41:04.284Z,53.71
2023-04-13T17:43:31.647Z,53.10
2023-04-13T17:45:58.890Z,53.37
2023-04-13T17:48:26.333Z,52.67
2023-04-13T17:50:53.588Z,53.31
2023-04-13T17:53:20.764Z,53.19
2023-04-13T17:55:47.876Z,53.32
2023-04-13T17:58:14.966Z,52.65
2023-04-13T18:00:42.106Z,53.06
2023-04-13T18:03:09.749Z,53.26
2023-04-13T18:05:37.134Z,53.91
2023-04-13T18:08:04.397Z,53.33
2023-04-13T18:10:31.525Z,52.48
2023-04-13T18:13:01.688Z,53.18
2023-04-13T18:15:28.868Z,52.69
2023-04-13T18:17:56.057Z,52.99
2023-04-13T18:20:23.266Z,53.77
2023-04-13T18:22:50.449Z,53.46
2023-04-13T18:25:17.621Z,52.74
2023-04-13T18:27:44.749Z,52.90
2023-04-13T18:30:12.946Z,53.43
2023-04-13T18:32:40.122Z,53.56
2023-04-13T18:35:07.887Z,53.54
2023-04-13T18:37:35.032Z,53.27
2023-04-13T18:40:04.535Z,53.69
2023-04-13T18:42:33.539Z,54.40
2023-04-13T18:46:10.098Z,55.96
2023-04-13T18:48:37.301Z,55.71
2023-04-13T18:51:04.585Z,55.21
2023-04-13T18:53:31.852Z,54.76
2023-04-13T18:55:59.169Z,56.80
2023-04-13T18:58:27.312Z,56.25
2023-04-13T19:01:00.095Z,56.38
2023-04-13T19:03:28.030Z,56.28
2023-04-13T19:05:56.393Z,56.87
2023-04-13T19:08:23.631Z,57.46
2023-04-13T19:10:51.619Z,56.95
2023-04-13T19:13:18.779Z,58.09
2023-04-13T19:15:46.865Z,57.71
2023-04-13T19:18:14.358Z,57.46
2023-04-13T19:20:41.497Z,57.36
2023-04-13T19:23:08.715Z,57.32
2023-04-13T19:25:35.926Z,57.72
2023-04-13T19:28:03.209Z,57.75
2023-04-13T19:30:30.601Z,57.68
2023-04-13T19:32:58.636Z,57.22
2023-04-13T19:35:26.417Z,56.31
2023-04-13T19:37:53.738Z,56.37
2023-04-13T19:40:23.260Z,55.63
2023-04-13T19:42:50.496Z,56.22
2023-04-13T19:45:17.877Z,56.23
2023-04-13T19:47:45.499Z,55.53
2023-04-13T19:50:14.464Z,56.58
2023-04-13T19:52:42.531Z,55.71
2023-04-13T19:55:11.034Z,56.48
2023-04-13T19:57:42.186Z,56.79
2023-04-13T20:00:20.792Z,56.72
2023-04-13T20:02:50.857Z,56.78
2023-04-13T20:05:19.877Z,59.80
2023-04-13T20:07:47.152Z,56.59
2023-04-13T20:10:14.360Z,57.58
2023-04-13T20:12:41.460Z,56.53
2023-04-13T20:15:09.016Z,55.68
2023-04-13T20:17:36.269Z,55.87
2023-04-13T20:20:04.245Z,55.35
2023-04-13T20:22:31.320Z,55.50
2023-04-13T20:24:58.434Z,54.98
2023-04-13T20:27:25.750Z,53.89
2023-04-13T20:29:53.162Z,53.84
2023-04-13T20:32:20.579Z,53.94
2023-04-13T20:34:49.481Z,54.76
2023-04-13T20:37:18.652Z,54.46
2023-04-13T20:39:53.101Z,54.13
2023-04-13T20:42:22.527Z,53.87
2023-04-13T20:44:57.644Z,53.31
2023-04-13T20:47:28.845Z,55.63
2023-04-13T20:49:57.650Z,54.77
2023-04-13T20:52:26.050Z,54.20
2023-04-13T20:54:54.826Z,53.98
2023-04-13T20:57:22.381Z,53.56
2023-04-13T20:59:49.807Z,54.31
2023-04-13T21:02:17.204Z,54.93
2023-04-13T21:04:44.440Z,56.43
2023-04-13T21:07:14.074Z,56.35
2023-04-13T21:09:41.718Z,56.09
2023-04-13T21:12:09.021Z,56.63
2023-04-13T21:14:36.230Z,57.30
2023-04-13T21:17:03.365Z,58.45
2023-04-13T21:19:30.553Z,58.72
2023-04-13T21:23:07.028Z,58.99
2023-04-13T21:25:34.151Z,58.34
2023-04-13T21:28:02.898Z,58.70
2023-04-13T21:30:30.050Z,59.14
2023-04-13T21:32:57.213Z,59.98
2023-04-13T21:35:24.384Z,59.54
2023-04-13T21:37:51.499Z,58.88
2023-04-13T21:40:18.735Z,59.01
2023-04-13T21:42:45.941Z,59.48
2023-04-13T21:45:13.498Z,59.93
2023-04-13T21:47:40.679Z,60.26
2023-04-13T21:50:08.254Z,59.71
2023-04-13T21:52:35.517Z,59.75
2023-04-13T21:55:03.516Z,59.37
2023-04-13T21:57:30.712Z,60.54
2023-04-13T21:59:57.902Z,60.50
2023-04-13T22:02:25.108Z,60.77
2023-04-13T22:04:52.274Z,59.61
2023-04-13T22:07:25.883Z,59.87
2023-04-13T22:09:59.653Z,60.05
2023-04-13T22:12:26.895Z,61.13
2023-04-13T22:14:54.273Z,61.14
2023-04-13T22:17:21.489Z,60.77
2023-04-13T22:19:48.573Z,60.39
2023-04-13T22:22:15.672Z,60.16
2023-04-13T22:24:42.783Z,60.69
2023-04-13T22:27:09.860Z,61.16
2023-04-13T22:29:37.000Z,60.95
2023-04-13T22:32:04.100Z,59.87
2023-04-13T22:34:31.515Z,60.00
2023-04-13T22:36:58.794Z,60.40
2023-04-13T22:39:25.921Z,61.08
2023-04-13T22:41:53.077Z,61.19
2023-04-13T22:44:20.181Z,61.23
2023-04-13T22:46:47.271Z,60.46
2023-04-13T22:49:14.397Z,60.28
2023-04-13T22:51:41.605Z,60.71
2023-04-13T22:54:08.701Z,61.27
2023-04-13T22:56:35.855Z,61.63
2023-04-13T22:59:03.331Z,60.75
2023-04-13T23:01:30.748Z,60.32
2023-04-13T23:03:58.134Z,61.20
2023-04-13T23:06:25.472Z,61.74
2023-04-13T23:08:52.622Z,62.17
2023-04-13T23:11:19.654Z,61.01
2023-04-13T23:13:46.924Z,61.24
2023-04-13T23:16:14.097Z,61.02
2023-04-13T23:18:41.285Z,62.11
2023-04-13T23:21:12.653Z,62.22
2023-04-13T23:23:40.192Z,62.69
2023-04-13T23:26:07.490Z,61.52
2023-04-13T23:28:34.619Z,61.35
2023-04-13T23:31:09.052Z,61.78
2023-04-13T23:33:36.527Z,62.44
2023-04-13T23:36:35.383Z,63.20
2023-04-13T23:39:02.759Z,62.55
2023-04-13T23:41:29.981Z,61.87
2023-04-13T23:43:57.030Z,62.30
2023-04-13T23:46:25.002Z,62.49
2023-04-13T23:48:52.080Z,63.03
2023-04-13T23:51:19.151Z,63.13
2023-04-13T23:53:46.534Z,62.23
2023-04-13T23:56:13.616Z,62.40
2023-04-13T23:58:40.779Z,62.42
